createdAt,value
2024-01-05T00:01:51.892Z,99447.09
2024-01-05T00:04:20.165Z,99445.31
2024-01-05T00:06:50.619Z,99430.81
2024-01-05T00:09:18.993Z,99431.69
2024-01-05T00:11:48.334Z,99433.16
2024-01-05T00:14:16.317Z,99428.84
2024-01-05T00:16:44.845Z,99430.50
2024-01-05T00:19:13.432Z,99434.31
2024-01-05T00:21:41.372Z,99431.97
2024-01-05T00:24:10.692Z,99421.03
2024-01-05T00:26:42.399Z,99418.34
2024-01-05T00:29:10.495Z,99414.94
2024-01-05T00:31:38.557Z,99404.91
2024-01-05T00:34:06.709Z,99400.59
2024-01-05T00:36:34.836Z,99397.06
2024-01-05T00:39:03.227Z,99395.56
2024-01-05T00:41:32.724Z,99384.66
2024-01-05T00:44:00.628Z,99375.47
2024-01-05T00:46:28.561Z,99377.25
2024-01-05T00:48:57.026Z,99369.00
2024-01-05T00:51:25.065Z,99359.84
2024-01-05T00:53:53.007Z,99351.56
2024-01-05T00:56:20.911Z,99343.31
2024-01-05T00:58:50.120Z,99329.13
2024-01-05T01:01:18.047Z,99318.47
2024-01-05T01:03:46.097Z,99307.84
2024-01-05T01:06:14.030Z,99302.84
2024-01-05T01:08:41.919Z,99313.16
2024-01-05T01:11:14.906Z,99320.16
2024-01-05T01:13:42.915Z,99329.63
2024-01-05T01:16:12.530Z,99339.53
2024-01-05T01:18:40.907Z,99331.81
2024-01-05T01:21:09.147Z,99330.66
2024-01-05T01:23:37.080Z,99325.94
2024-01-05T01:26:05.201Z,99321.22
2024-01-05T01:28:33.075Z,99324.78
2024-01-05T01:31:01.174Z,99313.25
2024-01-05T01:33:30.579Z,99308.22
2024-01-05T01:35:58.536Z,99294.03
2024-01-05T01:38:26.386Z,99296.41
2024-01-05T01:40:56.397Z,99291.38
2024-01-05T01:43:25.678Z,99290.47
2024-01-05T01:45:54.125Z,99282.78
2024-01-05T01:48:22.201Z,99284.56
2024-01-05T01:50:51.589Z,99266.81
2024-01-05T01:53:20.773Z,99261.50
2024-01-05T01:55:48.772Z,99260.59
2024-01-05T01:58:16.807Z,99268.88
2024-01-05T02:00:44.908Z,99268.72
2024-01-05T02:03:12.930Z,99253.47
2024-01-05T02:05:40.866Z,99251.72
2024-01-05T02:08:10.168Z,99252.31
2024-01-05T02:10:38.040Z,99244.59
2024-01-05T02:13:06.290Z,99246.09
2024-01-05T02:15:34.292Z,99237.50
2024-01-05T02:18:02.346Z,99235.72
2024-01-05T02:20:30.328Z,99229.66
2024-01-05T02:22:58.651Z,99220.34
2024-01-05T02:25:27.856Z,99221.09
2024-01-05T02:27:55.972Z,99214.13
2024-01-05T02:30:23.951Z,99220.06
2024-01-05T02:32:51.929Z,99215.59
2024-01-05T02:35:19.908Z,99215.47
2024-01-05T02:37:47.785Z,99217.97
2024-01-05T02:40:15.640Z,99212.97
2024-01-05T02:42:44.877Z,99208.81
2024-01-05T02:45:12.898Z,99213.84
2024-01-05T02:47:40.803Z,99207.94
2024-01-05T02:50:10.323Z,99204.66
2024-01-05T02:52:38.190Z,99206.44
2024-01-05T02:55:07.209Z,99193.16
2024-01-05T02:57:35.136Z,99188.13
2024-01-05T03:00:05.348Z,99189.91
2024-01-05T03:02:33.506Z,99190.19
2024-01-05T03:05:01.440Z,99188.72
2024-01-05T03:07:29.357Z,99182.25
2024-01-05T03:09:57.485Z,99177.38
2024-01-05T03:12:25.529Z,99176.03
2024-01-05T03:14:53.572Z,99164.53
2024-01-05T03:17:22.841Z,99163.63
2024-01-05T03:19:51.027Z,99153.75
2024-01-05T03:22:18.944Z,99156.97
2024-01-05T03:24:46.843Z,99153.75
2024-01-05T03:27:16.043Z,99151.50
2024-01-05T03:29:44.124Z,99149.72
2024-01-05T03:32:12.124Z,99146.03
2024-01-05T03:34:41.444Z,99143.84
2024-01-05T03:37:09.354Z,99142.38
2024-01-05T03:39:37.410Z,99132.88
2024-01-05T03:42:06.056Z,99129.03
2024-01-05T03:44:33.940Z,99142.38
2024-01-05T03:47:01.810Z,99123.88
2024-01-05T03:49:29.960Z,99132.31
2024-01-05T03:51:59.259Z,99123.72
2024-01-05T03:54:27.751Z,99119.44
2024-01-05T03:56:55.789Z,99112.63
2024-01-05T03:59:23.695Z,99113.38
2024-01-05T04:01:51.681Z,99112.50
2024-01-05T04:04:19.753Z,99113.25
2024-01-05T04:06:48.066Z,99098.75
2024-01-05T04:09:17.558Z,99106.28
2024-01-05T04:11:45.491Z,99107.75
2024-01-05T04:14:13.399Z,99105.13
2024-01-05T04:16:41.569Z,99103.16
2024-01-05T04:19:10.271Z,99098.00
2024-01-05T04:21:38.294Z,99100.38
2024-01-05T04:24:06.524Z,99098.44
2024-01-05T04:26:35.965Z,99086.91
2024-01-05T04:29:03.893Z,99090.47
2024-01-05T04:31:31.784Z,99090.31
2024-01-05T04:33:59.861Z,99089.44
2024-01-05T04:36:27.877Z,99088.38
2024-01-05T04:38:55.815Z,99087.38
2024-01-05T04:41:23.730Z,99081.28
2024-01-05T04:43:52.997Z,99076.28
2024-01-05T04:46:20.907Z,99078.78
2024-01-05T04:48:48.867Z,99073.75
2024-01-05T04:51:16.828Z,99075.22
2024-01-05T04:53:44.773Z,99065.19
2024-01-05T04:56:12.693Z,99055.13
2024-01-05T04:58:40.553Z,99055.13
2024-01-05T05:01:09.828Z,99040.97
2024-01-05T05:03:37.881Z,99050.44
2024-01-05T05:06:06.036Z,99060.47
2024-01-05T05:08:33.951Z,99048.94
2024-01-05T05:11:01.842Z,99050.69
2024-01-05T05:13:29.731Z,99033.25
2024-01-05T05:15:57.692Z,99049.22
2024-01-05T05:18:27.193Z,99055.00
2024-01-05T05:20:55.311Z,99063.13
2024-01-05T05:23:23.286Z,99066.69
2024-01-05T05:25:51.142Z,99062.53
2024-01-05T05:28:19.056Z,99053.38
2024-01-05T05:30:47.047Z,99050.13
2024-01-05T05:33:15.050Z,99038.31
2024-01-05T05:35:44.328Z,99049.69
2024-01-05T05:38:12.273Z,99066.06
2024-01-05T05:40:40.142Z,99061.06
2024-01-05T05:43:08.173Z,99059.59
2024-01-05T05:45:36.295Z,99059.84
2024-01-05T05:48:05.492Z,99049.53
2024-01-05T05:50:33.829Z,99061.38
2024-01-05T05:53:03.086Z,99062.53
2024-01-05T05:55:31.574Z,99062.53
2024-01-05T05:58:00.866Z,99059.13
2024-01-05T06:00:29.809Z,99055.44
2024-01-05T06:02:57.829Z,99059.59
2024-01-05T06:05:25.937Z,99065.34
2024-01-05T06:07:53.862Z,99055.13
2024-01-05T06:10:23.440Z,99057.22
2024-01-05T06:12:51.423Z,99053.09
2024-01-05T06:15:19.367Z,99050.41
2024-01-05T06:17:47.406Z,99066.94
2024-01-05T06:20:15.522Z,99053.06
2024-01-05T06:22:43.478Z,99066.69
2024-01-05T06:25:12.836Z,99073.16
2024-01-05T06:27:42.083Z,99086.47
2024-01-05T06:30:11.509Z,99080.44
2024-01-05T06:32:40.076Z,99086.19
2024-01-05T06:35:08.924Z,99085.13
2024-01-05T06:37:36.814Z,99084.09
2024-01-05T06:40:05.213Z,99089.88
2024-01-05T06:42:33.163Z,99083.81
2024-01-05T06:45:02.529Z,99083.50
2024-01-05T06:47:30.534Z,99072.13
2024-01-05T06:49:58.690Z,99075.97
2024-01-05T06:52:26.695Z,99069.19
2024-01-05T06:54:54.798Z,99080.25
2024-01-05T06:57:22.870Z,99073.44
2024-01-05T06:59:50.906Z,99080.25
2024-01-05T07:02:20.144Z,99080.25
2024-01-05T07:04:48.034Z,99078.78
2024-01-05T07:07:17.071Z,99070.78
2024-01-05T07:09:45.272Z,99074.94
2024-01-05T07:12:13.227Z,99069.34
2024-01-05T07:14:41.178Z,99079.38
2024-01-05T07:17:09.104Z,99079.66
2024-01-05T07:19:38.463Z,99083.22
2024-01-05T07:22:06.419Z,99082.03
2024-01-05T07:24:34.739Z,99077.78
2024-01-05T07:27:02.695Z,99083.81
2024-01-05T07:29:30.624Z,99082.34
2024-01-05T07:31:58.558Z,99082.34
2024-01-05T07:34:26.600Z,99080.72
2024-01-05T07:36:55.918Z,99079.38
2024-01-05T07:39:23.894Z,99083.97
2024-01-05T07:41:51.862Z,99065.03
2024-01-05T07:44:19.824Z,99079.97
2024-01-05T07:46:47.741Z,99074.94
2024-01-05T07:49:15.771Z,99078.50
2024-01-05T07:51:43.980Z,99082.78
2024-01-05T07:54:13.516Z,99086.75
2024-01-05T07:56:41.453Z,99081.00
2024-01-05T07:59:09.599Z,99085.00
2024-01-05T08:01:37.576Z,99074.94
2024-01-05T08:04:06.116Z,99068.91
2024-01-05T08:06:34.136Z,99064.59
2024-01-05T08:09:02.182Z,99073.78
2024-01-05T08:11:31.490Z,99059.00
2024-01-05T08:13:59.442Z,99057.50
2024-01-05T08:16:27.656Z,99057.50
2024-01-05T08:18:55.649Z,99054.84
2024-01-05T08:21:23.666Z,99048.94
2024-01-05T08:23:51.605Z,99046.13
2024-01-05T08:26:19.842Z,99057.78
2024-01-05T08:28:49.314Z,99048.34
2024-01-05T08:31:17.464Z,99036.22
2024-01-05T08:33:45.814Z,99033.28
2024-01-05T08:36:13.931Z,99035.94
2024-01-05T08:38:41.950Z,99039.47
2024-01-05T08:41:09.900Z,99042.75
2024-01-05T08:43:39.856Z,99035.94
2024-01-05T08:46:10.860Z,99029.13
2024-01-05T08:48:40.349Z,99032.38
2024-01-05T08:51:08.308Z,99025.59
2024-01-05T08:53:36.225Z,99023.22
2024-01-05T08:56:04.282Z,99031.34
2024-01-05T08:58:32.245Z,99020.88
2024-01-05T09:01:00.295Z,99033.84
2024-01-05T09:03:30.495Z,99026.31
2024-01-05T09:05:58.492Z,99028.81
2024-01-05T09:08:26.611Z,99022.34
2024-01-05T09:10:55.633Z,99021.28
2024-01-05T09:13:24.011Z,99034.16
2024-01-05T09:15:52.010Z,99041.25
2024-01-05T09:18:20.062Z,99026.47
2024-01-05T09:20:49.386Z,99045.69
2024-01-05T09:23:17.447Z,99042.59
2024-01-05T09:25:46.670Z,99055.44
2024-01-05T09:28:14.807Z,99048.06
2024-01-05T09:30:42.998Z,99047.16
2024-01-05T09:33:11.205Z,99041.53
2024-01-05T09:35:39.214Z,99037.38
2024-01-05T09:38:08.651Z,99033.25
2024-01-05T09:40:36.636Z,99042.72
2024-01-05T09:43:04.806Z,99033.41
2024-01-05T09:45:32.888Z,99039.03
2024-01-05T09:48:01.342Z,99031.78
2024-01-05T09:50:30.552Z,99039.44
2024-01-05T09:52:58.710Z,99030.28
2024-01-05T09:55:28.165Z,99001.63
2024-01-05T09:57:56.073Z,99032.94
2024-01-05T10:00:24.422Z,99036.19
2024-01-05T10:02:57.034Z,99025.56
2024-01-05T10:05:26.309Z,99011.38
2024-01-05T10:07:54.743Z,99027.34
2024-01-05T10:10:22.633Z,99022.75
2024-01-05T10:12:52.071Z,99023.47
2024-01-05T10:15:20.292Z,99000.16
2024-01-05T10:17:48.266Z,99013.31
2024-01-05T10:20:17.702Z,99008.88
2024-01-05T10:22:47.887Z,99008.13
2024-01-05T10:25:17.824Z,99012.84
2024-01-05T10:27:46.157Z,99009.31
2024-01-05T10:30:29.913Z,99015.81
2024-01-05T10:33:06.015Z,99005.50
2024-01-05T10:35:35.380Z,99003.72
2024-01-05T10:38:07.620Z,99006.97
2024-01-05T10:40:35.557Z,99015.25
2024-01-05T10:43:10.948Z,98999.88
2024-01-05T10:45:41.111Z,99006.38
2024-01-05T10:48:10.393Z,99001.38
2024-01-05T10:50:38.910Z,99002.09
2024-01-05T10:53:09.801Z,98990.25
2024-01-05T10:55:38.758Z,99001.06
2024-01-05T10:58:07.456Z,99004.28
2024-01-05T11:00:35.543Z,98997.53
2024-01-05T11:03:13.022Z,99001.06
2024-01-05T11:05:42.838Z,99008.47
2024-01-05T11:08:25.841Z,99015.22
2024-01-05T11:10:59.860Z,99006.97
2024-01-05T11:13:45.324Z,98995.16
2024-01-05T11:16:25.438Z,99010.69
2024-01-05T11:19:08.502Z,99007.53
2024-01-05T11:21:41.633Z,99006.22
2024-01-05T11:24:09.630Z,99005.50
2024-01-05T11:26:40.266Z,99009.03
2024-01-05T11:29:12.038Z,99010.22
2024-01-05T11:31:52.513Z,99024.09
2024-01-05T11:34:36.102Z,99025.25
2024-01-05T11:37:05.604Z,99017.28
2024-01-05T11:39:45.005Z,99022.75
2024-01-05T11:42:30.765Z,99026.16
2024-01-05T11:44:59.103Z,99014.63
2024-01-05T11:47:46.420Z,99012.84
2024-01-05T11:50:32.081Z,99003.38
2024-01-05T11:53:13.521Z,99000.72
2024-01-05T11:55:47.738Z,98991.44
2024-01-05T11:58:18.124Z,98997.19
2024-01-05T12:00:47.694Z,99000.44
2024-01-05T12:03:16.577Z,98993.63
2024-01-05T12:05:48.971Z,98993.31
2024-01-05T12:08:18.525Z,98998.09
2024-01-05T12:10:46.448Z,98997.78
2024-01-05T12:13:14.319Z,98991.75
2024-01-05T12:15:49.773Z,98990.69
2024-01-05T12:18:31.468Z,98994.69
2024-01-05T12:21:07.002Z,98986.88
2024-01-05T12:23:35.573Z,98995.13
2024-01-05T12:26:04.519Z,98998.38
2024-01-05T12:28:32.935Z,98994.88
2024-01-05T12:31:01.111Z,98995.72
2024-01-05T12:33:29.604Z,98987.19
2024-01-05T12:35:57.760Z,98975.94
2024-01-05T12:38:27.320Z,98984.19
2024-01-05T12:40:56.716Z,98984.19
2024-01-05T12:43:25.113Z,98992.50
2024-01-05T12:45:53.024Z,98982.47
2024-01-05T12:48:21.034Z,98977.44
2024-01-05T12:50:49.008Z,98984.19
2024-01-05T12:53:20.677Z,98983.34
2024-01-05T12:55:56.063Z,98985.41
2024-01-05T12:58:23.951Z,98983.94
2024-01-05T13:00:53.616Z,98991.59
2024-01-05T13:03:21.654Z,98992.47
2024-01-05T13:05:49.610Z,98996.91
2024-01-05T13:08:17.588Z,99000.47
2024-01-05T13:10:45.616Z,98992.16
2024-01-05T13:13:14.847Z,99001.47
2024-01-05T13:15:42.845Z,98997.50
2024-01-05T13:18:10.970Z,99006.81
2024-01-05T13:20:38.947Z,99006.97
2024-01-05T13:23:06.963Z,98999.44
2024-01-05T13:25:34.870Z,99008.13
2024-01-05T13:28:02.733Z,99003.09
2024-01-05T13:30:32.088Z,99012.56
2024-01-05T13:33:00.219Z,99010.19
2024-01-05T13:35:28.339Z,99009.28
2024-01-05T13:37:56.235Z,99011.97
2024-01-05T13:40:24.172Z,99008.72
2024-01-05T13:42:52.039Z,99006.34
2024-01-05T13:45:20.221Z,99011.53
2024-01-05T13:47:49.538Z,99007.50
2024-01-05T13:50:17.756Z,99010.75
2024-01-05T13:52:45.711Z,99003.09
2024-01-05T13:55:13.620Z,99009.03
2024-01-05T13:57:41.837Z,99008.88
2024-01-05T14:00:10.737Z,99005.47
2024-01-05T14:02:38.735Z,98999.53
2024-01-05T14:05:08.629Z,99011.81
2024-01-05T14:07:36.562Z,99004.88
2024-01-05T14:10:06.323Z,99002.06
2024-01-05T14:12:34.473Z,99000.16
2024-01-05T14:15:04.875Z,99010.81
2024-01-05T14:17:32.968Z,99002.22
2024-01-05T14:20:01.085Z,99006.97
2024-01-05T14:22:30.440Z,99013.19
2024-01-05T14:24:58.516Z,99014.97
2024-01-05T14:27:26.548Z,99006.38
2024-01-05T14:29:54.483Z,99020.41
2024-01-05T14:32:22.658Z,99016.13
2024-01-05T14:34:50.886Z,99014.34
2024-01-05T14:37:18.791Z,99025.91
2024-01-05T14:39:48.012Z,99025.91
2024-01-05T14:42:16.192Z,99027.66
2024-01-05T14:44:44.135Z,99024.13
2024-01-05T14:47:12.260Z,99019.09
2024-01-05T14:49:40.376Z,99020.13
2024-01-05T14:52:08.321Z,99020.13
2024-01-05T14:54:36.256Z,99011.09
2024-01-05T14:57:05.908Z,99016.44
2024-01-05T14:59:33.844Z,99015.81
2024-01-05T15:02:04.047Z,99015.25
2024-01-05T15:04:32.805Z,99022.94
2024-01-05T15:07:01.034Z,99015.56
2024-01-05T15:09:29.436Z,99018.06
2024-01-05T15:11:57.437Z,99015.81
2024-01-05T15:14:27.979Z,99017.03
2024-01-05T15:16:55.864Z,99018.66
2024-01-05T15:19:23.850Z,99021.16
2024-01-05T15:21:51.834Z,99024.69
2024-01-05T15:24:19.868Z,99034.16
2024-01-05T15:26:47.880Z,99030.91
2024-01-05T15:29:16.096Z,99023.22
2024-01-05T15:31:45.396Z,99028.50
2024-01-05T15:34:13.546Z,99028.50
2024-01-05T15:36:41.769Z,99026.88
2024-01-05T15:39:11.196Z,99042.13
2024-01-05T15:41:40.087Z,99038.88
2024-01-05T15:44:08.048Z,99041.84
2024-01-05T15:46:36.003Z,99048.91
2024-01-05T15:49:05.472Z,99052.16
2024-01-05T15:51:36.544Z,99057.19
2024-01-05T15:54:04.837Z,99049.66
2024-01-05T15:56:33.690Z,99045.38
2024-01-05T15:59:01.625Z,99040.34
2024-01-05T16:01:29.771Z,99046.88
2024-01-05T16:03:57.813Z,99060.16
2024-01-05T16:06:27.997Z,99055.72
2024-01-05T16:08:56.009Z,99051.31
2024-01-05T16:11:30.000Z,99050.28
2024-01-05T16:13:57.950Z,99056.03
2024-01-05T16:16:26.236Z,99058.25
2024-01-05T16:18:54.758Z,99062.25
2024-01-05T16:21:23.989Z,99064.44
2024-01-05T16:23:53.505Z,99071.09
2024-01-05T16:26:21.499Z,99068.16
2024-01-05T16:28:49.578Z,99072.28
2024-01-05T16:31:17.999Z,99070.50
2024-01-05T16:33:46.338Z,99070.38
2024-01-05T16:36:14.318Z,99072.00
2024-01-05T16:38:42.279Z,99074.34
2024-01-05T16:41:11.493Z,99076.13
2024-01-05T16:43:39.453Z,99076.13
2024-01-05T16:46:07.384Z,99081.16
2024-01-05T16:48:35.460Z,99086.19
2024-01-05T16:51:03.642Z,99088.97
2024-01-05T16:53:31.564Z,99083.22
2024-01-05T16:55:59.472Z,99086.63
2024-01-05T16:58:28.765Z,99090.34
2024-01-05T17:00:57.002Z,99103.91
2024-01-05T17:03:25.094Z,99090.59
2024-01-05T17:05:53.193Z,99097.69
2024-01-05T17:08:21.125Z,99094.44
2024-01-05T17:10:49.102Z,99100.38
2024-01-05T17:13:18.001Z,99098.00
2024-01-05T17:15:47.335Z,99092.97
2024-01-05T17:18:16.775Z,99099.78
2024-01-05T17:20:44.930Z,99106.88
2024-01-05T17:23:12.951Z,99104.34
2024-01-05T17:25:40.829Z,99099.50
2024-01-05T17:28:08.701Z,99105.41
2024-01-05T17:30:36.844Z,99100.38
2024-01-05T17:33:06.586Z,99099.75
2024-01-05T17:35:35.324Z,99093.84
2024-01-05T17:38:03.276Z,99095.63
2024-01-05T17:40:31.206Z,99099.19
2024-01-05T17:42:59.266Z,99094.91
2024-01-05T17:45:27.296Z,99100.06
2024-01-05T17:47:55.273Z,99104.22
2024-01-05T17:50:24.578Z,99094.16
2024-01-05T17:52:54.768Z,99097.41
2024-01-05T17:55:22.637Z,99099.91
2024-01-05T17:57:50.703Z,99105.69
2024-01-05T18:00:19.440Z,99108.34
2024-01-05T18:02:47.384Z,99115.72
2024-01-05T18:05:16.137Z,99112.22
2024-01-05T18:07:45.490Z,99110.13
2024-01-05T18:10:13.618Z,99114.13
2024-01-05T18:12:44.167Z,99123.13
2024-01-05T18:15:12.932Z,99121.06
2024-01-05T18:17:41.001Z,99124.31
2024-01-05T18:20:10.395Z,99133.31
2024-01-05T18:22:38.377Z,99129.03
2024-01-05T18:25:08.316Z,99140.59
2024-01-05T18:27:36.270Z,99140.25
2024-01-05T18:30:04.803Z,99132.56
2024-01-05T18:32:32.857Z,99139.94
2024-01-05T18:35:01.659Z,99143.22
2024-01-05T18:37:29.694Z,99149.72
2024-01-05T18:39:57.628Z,99149.72
2024-01-05T18:42:27.137Z,99154.75
2024-01-05T18:44:55.036Z,99154.75
2024-01-05T18:47:23.082Z,99162.13
2024-01-05T18:49:51.019Z,99166.56
2024-01-05T18:52:19.289Z,99165.84
2024-01-05T18:54:47.218Z,99171.00
2024-01-05T18:57:18.837Z,99168.63
2024-01-05T18:59:48.174Z,99175.44
2024-01-05T19:02:16.065Z,99176.31
2024-01-05T19:04:44.072Z,99175.75
2024-01-05T19:07:11.972Z,99185.03
2024-01-05T19:09:40.043Z,99178.41
2024-01-05T19:12:09.151Z,99170.28
2024-01-05T19:14:37.673Z,99184.63
2024-01-05T19:17:07.528Z,99178.88
2024-01-05T19:19:35.591Z,99183.13
2024-01-05T19:22:03.993Z,99185.50
2024-01-05T19:24:32.001Z,99179.88
2024-01-05T19:27:00.125Z,99183.44
2024-01-05T19:29:28.031Z,99185.22
2024-01-05T19:31:55.995Z,99191.72
2024-01-05T19:34:25.350Z,99196.16
2024-01-05T19:36:53.532Z,99202.09
2024-01-05T19:39:21.761Z,99213.88
2024-01-05T19:41:51.162Z,99207.53
2024-01-05T19:44:20.871Z,99211.69
2024-01-05T19:46:48.817Z,99210.06
2024-01-05T19:49:17.068Z,99211.69
2024-01-05T19:51:47.948Z,99207.38
2024-01-05T19:54:16.921Z,99214.19
2024-01-05T19:56:45.347Z,99210.63
2024-01-05T19:59:13.435Z,99217.44
2024-01-05T20:01:46.301Z,99218.91
2024-01-05T20:04:16.244Z,99209.47
2024-01-05T20:06:46.108Z,99214.16
2024-01-05T20:09:16.370Z,99207.25
2024-01-05T20:11:45.013Z,99213.00
2024-01-05T20:14:13.551Z,99212.69
2024-01-05T20:16:41.515Z,99219.19
2024-01-05T20:19:09.715Z,99222.44
2024-01-05T20:21:37.995Z,99218.88
2024-01-05T20:24:07.049Z,99214.28
2024-01-05T20:26:37.066Z,99213.25
2024-01-05T20:29:05.164Z,99210.91
2024-01-05T20:31:33.958Z,99211.47
2024-01-05T20:34:02.397Z,99214.72
2024-01-05T20:36:30.603Z,99223.00
2024-01-05T20:39:00.763Z,99221.22
2024-01-05T20:41:28.870Z,99226.25
2024-01-05T20:43:58.740Z,99215.88
2024-01-05T20:46:26.757Z,99221.97
2024-01-05T20:48:54.792Z,99219.44
2024-01-05T20:51:25.406Z,99226.25
2024-01-05T20:53:53.734Z,99221.22
2024-01-05T20:56:21.680Z,99217.97
2024-01-05T20:58:49.609Z,99224.75
2024-01-05T21:01:19.512Z,99228.31
2024-01-05T21:03:48.416Z,99230.09
2024-01-05T21:06:16.522Z,99233.66
2024-01-05T21:08:44.948Z,99235.41
2024-01-05T21:11:20.805Z,99238.97
2024-01-05T21:13:48.978Z,99233.94
2024-01-05T21:16:16.885Z,99244.31
2024-01-05T21:18:46.354Z,99246.09
2024-01-05T21:21:14.368Z,99240.47
2024-01-05T21:23:42.285Z,99246.38
2024-01-05T21:26:10.206Z,99244.03
2024-01-05T21:28:38.100Z,99245.94
2024-01-05T21:31:06.533Z,99240.19
2024-01-05T21:33:34.896Z,99248.78
2024-01-05T21:36:05.406Z,99239.78
2024-01-05T21:38:34.534Z,99245.81
2024-01-05T21:41:02.697Z,99250.13
2024-01-05T21:43:30.726Z,99251.16
2024-01-05T21:45:59.470Z,99260.31
2024-01-05T21:48:27.635Z,99249.38
2024-01-05T21:50:55.621Z,99250.84
2024-01-05T21:53:24.837Z,99259.28
2024-01-05T21:55:53.000Z,99265.63
2024-01-05T21:58:20.974Z,99265.63
2024-01-05T22:00:49.202Z,99264.44
2024-01-05T22:03:19.770Z,99271.84
2024-01-05T22:05:48.844Z,99273.28
2024-01-05T22:08:16.844Z,99274.75
2024-01-05T22:10:47.882Z,99279.50
2024-01-05T22:13:15.956Z,99280.06
2024-01-05T22:15:43.954Z,99277.38
2024-01-05T22:18:11.968Z,99282.13
2024-01-05T22:20:42.866Z,99280.34
2024-01-05T22:23:10.749Z,99286.81
2024-01-05T22:25:41.315Z,99279.16
2024-01-05T22:28:10.646Z,99276.50
2024-01-05T22:30:38.615Z,99281.19
2024-01-05T22:33:06.816Z,99284.44
2024-01-05T22:35:34.809Z,99277.31
2024-01-05T22:38:02.670Z,99292.72
2024-01-05T22:40:30.611Z,99294.19
2024-01-05T22:42:58.643Z,99295.97
2024-01-05T22:45:27.956Z,99295.97
2024-01-05T22:47:56.065Z,99295.97
2024-01-05T22:50:24.048Z,99297.75
2024-01-05T22:52:52.319Z,99309.53
2024-01-05T22:55:20.239Z,99299.81
2024-01-05T22:57:48.162Z,99296.59
2024-01-05T23:00:18.494Z,99300.13
2024-01-05T23:02:47.765Z,99305.47
2024-01-05T23:05:15.677Z,99307.53
2024-01-05T23:07:43.846Z,99307.53
2024-01-05T23:10:11.919Z,99312.88
2024-01-05T23:12:39.880Z,99316.44
2024-01-05T23:15:09.413Z,99301.38
2024-01-05T23:17:37.898Z,99314.22
2024-01-05T23:20:09.943Z,99312.78
2024-01-05T23:22:38.089Z,99324.59
2024-01-05T23:25:06.535Z,99327.41
2024-01-05T23:27:35.240Z,99332.44
2024-01-05T23:30:03.904Z,99331.88
2024-01-05T23:32:31.939Z,99338.66
2024-01-05T23:35:00.052Z,99339.84
2024-01-05T23:37:30.333Z,99334.81
2024-01-05T23:39:58.299Z,99343.41
2024-01-05T23:42:26.208Z,99338.97
2024-01-05T23:44:54.150Z,99341.31
2024-01-05T23:47:22.150Z,99344.88
2024-01-05T23:49:50.241Z,99349.00
2024-01-05T23:52:18.273Z,99300.38
2024-01-05T23:54:47.668Z,99346.06
2024-01-05T23:57:15.661Z,99346.06
2024-01-05T23:59:43.636Z,99352.53
